sensor_id;sensor_type;location;lat;lon;timestamp;P1;durP1;ratioP1;P2;durP2;ratioP2
21681;SDS011;11002;48.256;10.084;2023-12-04T00:01:54;37.35;;;11.00;;
21681;SDS011;11002;48.256;10.084;2023-12-04T00:04:21;28.58;;;10.98;;
21681;SDS011;11002;48.256;10.084;2023-12-04T00:06:48;31.02;;;10.35;;
21681;SDS011;11002;48.256;10.084;2023-12-04T00:09:17;28.00;;;9.98;;
21681;SDS011;11002;48.256;10.084;2023-12-04T00:11:44;26.30;;;8.68;;
21681;SDS011;11002;48.256;10.084;2023-12-04T00:14:11;18.88;;;9.07;;
21681;SDS011;11002;48.256;10.084;2023-12-04T00:16:38;21.35;;;9.65;;
21681;SDS011;11002;48.256;10.084;2023-12-04T00:19:05;22.15;;;9.32;;
21681;SDS011;11002;48.256;10.084;2023-12-04T00:21:33;21.38;;;9.02;;
21681;SDS011;11002;48.256;10.084;2023-12-04T00:24:00;23.15;;;10.00;;
21681;SDS011;11002;48.256;10.084;2023-12-04T00:26:29;54.60;;;9.40;;
21681;SDS011;11002;48.256;10.084;2023-12-04T00:28:56;22.52;;;9.52;;
21681;SDS011;11002;48.256;10.084;2023-12-04T00:31:23;31.30;;;9.82;;
21681;SDS011;11002;48.256;10.084;2023-12-04T00:33:51;18.38;;;9.05;;
21681;SDS011;11002;48.256;10.084;2023-12-04T00:36:18;30.23;;;8.68;;
21681;SDS011;11002;48.256;10.084;2023-12-04T00:38:45;41.05;;;11.20;;
21681;SDS011;11002;48.256;10.084;2023-12-04T00:41:13;18.55;;;8.82;;
21681;SDS011;11002;48.256;10.084;2023-12-04T00:43:41;21.80;;;9.60;;
21681;SDS011;11002;48.256;10.084;2023-12-04T00:46:08;23.58;;;7.00;;
21681;SDS011;11002;48.256;10.084;2023-12-04T00:48:36;31.63;;;9.48;;
21681;SDS011;11002;48.256;10.084;2023-12-04T00:51:03;15.77;;;9.15;;
21681;SDS011;11002;48.256;10.084;2023-12-04T00:53:31;21.73;;;9.43;;
21681;SDS011;11002;48.256;10.084;2023-12-04T00:55:58;15.65;;;7.93;;
21681;SDS011;11002;48.256;10.084;2023-12-04T00:58:25;16.92;;;7.93;;
21681;SDS011;11002;48.256;10.084;2023-12-04T01:00:54;22.77;;;9.02;;
21681;SDS011;11002;48.256;10.084;2023-12-04T01:03:22;21.52;;;10.18;;
21681;SDS011;11002;48.256;10.084;2023-12-04T01:05:51;21.10;;;10.02;;
21681;SDS011;11002;48.256;10.084;2023-12-04T01:08:19;18.92;;;9.40;;
21681;SDS011;11002;48.256;10.084;2023-12-04T01:10:46;14.25;;;7.43;;
21681;SDS011;11002;48.256;10.084;2023-12-04T01:13:13;16.90;;;8.65;;
21681;SDS011;11002;48.256;10.084;2023-12-04T01:15:40;19.17;;;8.88;;
21681;SDS011;11002;48.256;10.084;2023-12-04T01:18:11;15.57;;;7.68;;
21681;SDS011;11002;48.256;10.084;2023-12-04T01:20:38;15.40;;;7.82;;
21681;SDS011;11002;48.256;10.084;2023-12-04T01:23:06;14.93;;;7.88;;
21681;SDS011;11002;48.256;10.084;2023-12-04T01:25:33;15.63;;;7.97;;
21681;SDS011;11002;48.256;10.084;2023-12-04T01:28:00;15.77;;;7.68;;
21681;SDS011;11002;48.256;10.084;2023-12-04T01:30:27;18.60;;;8.30;;
21681;SDS011;11002;48.256;10.084;2023-12-04T01:32:55;16.75;;;8.30;;
21681;SDS011;11002;48.256;10.084;2023-12-04T01:35:23;12.43;;;6.63;;
21681;SDS011;11002;48.256;10.084;2023-12-04T01:37:51;16.85;;;7.40;;
21681;SDS011;11002;48.256;10.084;2023-12-04T01:40:18;18.13;;;7.88;;
21681;SDS011;11002;48.256;10.084;2023-12-04T01:42:45;24.52;;;7.55;;
21681;SDS011;11002;48.256;10.084;2023-12-04T01:45:12;13.07;;;7.78;;
21681;SDS011;11002;48.256;10.084;2023-12-04T01:47:39;20.13;;;8.63;;
21681;SDS011;11002;48.256;10.084;2023-12-04T01:50:07;18.65;;;7.93;;
21681;SDS011;11002;48.256;10.084;2023-12-04T01:52:36;19.63;;;8.98;;
21681;SDS011;11002;48.256;10.084;2023-12-04T01:55:04;24.17;;;7.70;;
21681;SDS011;11002;48.256;10.084;2023-12-04T01:57:33;19.77;;;8.57;;
21681;SDS011;11002;48.256;10.084;2023-12-04T02:00:01;15.27;;;6.68;;
21681;SDS011;11002;48.256;10.084;2023-12-04T02:02:37;36.65;;;7.82;;
21681;SDS011;11002;48.256;10.084;2023-12-04T02:05:04;16.95;;;7.45;;
21681;SDS011;11002;48.256;10.084;2023-12-04T02:07:33;15.93;;;6.18;;
21681;SDS011;11002;48.256;10.084;2023-12-04T02:10:03;19.05;;;6.82;;
21681;SDS011;11002;48.256;10.084;2023-12-04T02:12:31;13.75;;;6.82;;
21681;SDS011;11002;48.256;10.084;2023-12-04T02:14:59;16.25;;;8.05;;
21681;SDS011;11002;48.256;10.084;2023-12-04T02:17:27;17.10;;;6.35;;
21681;SDS011;11002;48.256;10.084;2023-12-04T02:19:55;17.35;;;7.43;;
21681;SDS011;11002;48.256;10.084;2023-12-04T02:22:22;22.15;;;8.57;;
21681;SDS011;11002;48.256;10.084;2023-12-04T02:24:51;14.07;;;7.38;;
21681;SDS011;11002;48.256;10.084;2023-12-04T02:27:20;22.27;;;8.18;;
21681;SDS011;11002;48.256;10.084;2023-12-04T02:29:51;12.50;;;6.35;;
21681;SDS011;11002;48.256;10.084;2023-12-04T02:32:23;19.05;;;9.40;;
21681;SDS011;11002;48.256;10.084;2023-12-04T02:34:51;14.98;;;7.10;;
21681;SDS011;11002;48.256;10.084;2023-12-04T02:37:21;16.30;;;7.82;;
21681;SDS011;11002;48.256;10.084;2023-12-04T02:39:51;13.63;;;6.30;;
21681;SDS011;11002;48.256;10.084;2023-12-04T02:42:20;17.08;;;8.57;;
21681;SDS011;11002;48.256;10.084;2023-12-04T02:44:50;14.55;;;7.22;;
21681;SDS011;11002;48.256;10.084;2023-12-04T02:47:17;20.92;;;9.05;;
21681;SDS011;11002;48.256;10.084;2023-12-04T02:49:45;20.20;;;8.40;;
21681;SDS011;11002;48.256;10.084;2023-12-04T02:52:12;18.63;;;8.35;;
21681;SDS011;11002;48.256;10.084;2023-12-04T02:54:39;20.52;;;7.53;;
21681;SDS011;11002;48.256;10.084;2023-12-04T02:57:08;15.57;;;7.65;;
21681;SDS011;11002;48.256;10.084;2023-12-04T02:59:35;19.17;;;7.43;;
21681;SDS011;11002;48.256;10.084;2023-12-04T03:02:02;15.23;;;7.07;;
21681;SDS011;11002;48.256;10.084;2023-12-04T03:04:30;19.73;;;8.32;;
21681;SDS011;11002;48.256;10.084;2023-12-04T03:06:57;18.33;;;7.22;;
21681;SDS011;11002;48.256;10.084;2023-12-04T03:09:24;21.75;;;6.72;;
21681;SDS011;11002;48.256;10.084;2023-12-04T03:11:52;26.25;;;8.90;;
21681;SDS011;11002;48.256;10.084;2023-12-04T03:14:20;13.50;;;7.07;;
21681;SDS011;11002;48.256;10.084;2023-12-04T03:16:47;19.58;;;8.70;;
21681;SDS011;11002;48.256;10.084;2023-12-04T03:19:16;10.90;;;6.70;;
21681;SDS011;11002;48.256;10.084;2023-12-04T03:21:43;15.25;;;8.02;;
21681;SDS011;11002;48.256;10.084;2023-12-04T03:24:10;18.80;;;7.38;;
21681;SDS011;11002;48.256;10.084;2023-12-04T03:26:37;13.45;;;7.40;;
21681;SDS011;11002;48.256;10.084;2023-12-04T03:29:04;25.98;;;9.00;;
21681;SDS011;11002;48.256;10.084;2023-12-04T03:31:33;19.10;;;7.85;;
21681;SDS011;11002;48.256;10.084;2023-12-04T03:34:01;14.10;;;7.97;;
21681;SDS011;11002;48.256;10.084;2023-12-04T03:36:29;15.85;;;8.20;;
21681;SDS011;11002;48.256;10.084;2023-12-04T03:38:56;11.50;;;7.32;;
21681;SDS011;11002;48.256;10.084;2023-12-04T03:41:23;18.10;;;7.70;;
21681;SDS011;11002;48.256;10.084;2023-12-04T03:43:50;16.08;;;8.75;;
21681;SDS011;11002;48.256;10.084;2023-12-04T03:46:18;27.33;;;7.72;;
21681;SDS011;11002;48.256;10.084;2023-12-04T03:48:46;15.82;;;7.75;;
21681;SDS011;11002;48.256;10.084;2023-12-04T03:51:13;30.63;;;7.15;;
21681;SDS011;11002;48.256;10.084;2023-12-04T03:53:41;20.42;;;8.52;;
21681;SDS011;11002;48.256;10.084;2023-12-04T03:56:08;32.60;;;7.78;;
21681;SDS011;11002;48.256;10.084;2023-12-04T03:58:37;18.05;;;8.05;;
21681;SDS011;11002;48.256;10.084;2023-12-04T04:01:05;26.92;;;10.90;;
21681;SDS011;11002;48.256;10.084;2023-12-04T04:03:32;22.15;;;7.22;;
21681;SDS011;11002;48.256;10.084;2023-12-04T04:06:01;15.70;;;7.95;;
21681;SDS011;11002;48.256;10.084;2023-12-04T04:08:28;12.75;;;6.50;;
21681;SDS011;11002;48.256;10.084;2023-12-04T04:10:55;16.35;;;5.38;;
21681;SDS011;11002;48.256;10.084;2023-12-04T04:13:23;15.15;;;7.25;;
21681;SDS011;11002;48.256;10.084;2023-12-04T04:15:50;14.65;;;8.32;;
21681;SDS011;11002;48.256;10.084;2023-12-04T04:18:17;12.75;;;5.40;;
21681;SDS011;11002;48.256;10.084;2023-12-04T04:20:45;19.50;;;9.23;;
21681;SDS011;11002;48.256;10.084;2023-12-04T04:23:13;20.67;;;6.85;;
21681;SDS011;11002;48.256;10.084;2023-12-04T04:25:40;25.50;;;7.40;;
21681;SDS011;11002;48.256;10.084;2023-12-04T04:28:08;22.35;;;6.22;;
21681;SDS011;11002;48.256;10.084;2023-12-04T04:30:35;13.93;;;6.32;;
21681;SDS011;11002;48.256;10.084;2023-12-04T04:33:05;15.85;;;6.82;;
21681;SDS011;11002;48.256;10.084;2023-12-04T04:36:47;17.30;;;6.80;;
21681;SDS011;11002;48.256;10.084;2023-12-04T04:43:41;16.63;;;7.15;;
21681;SDS011;11002;48.256;10.084;2023-12-04T04:46:45;10.93;;;4.53;;
21681;SDS011;11002;48.256;10.084;2023-12-04T04:49:59;11.60;;;6.60;;
21681;SDS011;11002;48.256;10.084;2023-12-04T04:55:38;9.77;;;5.18;;
21681;SDS011;11002;48.256;10.084;2023-12-04T04:58:16;18.00;;;6.75;;
21681;SDS011;11002;48.256;10.084;2023-12-04T05:00:47;11.32;;;4.97;;
21681;SDS011;11002;48.256;10.084;2023-12-04T05:03:15;9.23;;;5.65;;
21681;SDS011;11002;48.256;10.084;2023-12-04T05:05:45;13.00;;;6.45;;
21681;SDS011;11002;48.256;10.084;2023-12-04T05:08:34;9.75;;;6.35;;
21681;SDS011;11002;48.256;10.084;2023-12-04T05:14:21;17.08;;;6.25;;
21681;SDS011;11002;48.256;10.084;2023-12-04T05:16:59;12.15;;;5.47;;
21681;SDS011;11002;48.256;10.084;2023-12-04T05:19:28;15.82;;;8.15;;
21681;SDS011;11002;48.256;10.084;2023-12-04T05:21:56;17.67;;;6.13;;
21681;SDS011;11002;48.256;10.084;2023-12-04T05:24:27;18.10;;;6.53;;
21681;SDS011;11002;48.256;10.084;2023-12-04T05:27:04;13.30;;;7.22;;
21681;SDS011;11002;48.256;10.084;2023-12-04T05:29:59;15.68;;;5.95;;
21681;SDS011;11002;48.256;10.084;2023-12-04T05:32:41;14.13;;;6.00;;
21681;SDS011;11002;48.256;10.084;2023-12-04T05:35:12;9.80;;;5.50;;
21681;SDS011;11002;48.256;10.084;2023-12-04T05:37:44;12.30;;;5.80;;
21681;SDS011;11002;48.256;10.084;2023-12-04T05:40:19;15.05;;;5.43;;
21681;SDS011;11002;48.256;10.084;2023-12-04T05:42:53;13.82;;;6.22;;
21681;SDS011;11002;48.256;10.084;2023-12-04T05:45:26;15.57;;;7.18;;
21681;SDS011;11002;48.256;10.084;2023-12-04T05:48:03;12.00;;;6.82;;
21681;SDS011;11002;48.256;10.084;2023-12-04T05:50:34;12.88;;;6.22;;
21681;SDS011;11002;48.256;10.084;2023-12-04T05:53:02;11.60;;;5.60;;
21681;SDS011;11002;48.256;10.084;2023-12-04T05:55:48;11.23;;;6.35;;
21681;SDS011;11002;48.256;10.084;2023-12-04T05:58:32;14.55;;;6.13;;
21681;SDS011;11002;48.256;10.084;2023-12-04T06:01:27;14.90;;;6.70;;
21681;SDS011;11002;48.256;10.084;2023-12-04T06:04:20;9.77;;;5.32;;
21681;SDS011;11002;48.256;10.084;2023-12-04T06:07:13;9.15;;;5.40;;
21681;SDS011;11002;48.256;10.084;2023-12-04T06:09:56;10.00;;;5.90;;
21681;SDS011;11002;48.256;10.084;2023-12-04T06:12:28;13.45;;;6.18;;
21681;SDS011;11002;48.256;10.084;2023-12-04T06:15:05;7.82;;;5.60;;
21681;SDS011;11002;48.256;10.084;2023-12-04T06:17:38;14.82;;;6.50;;
21681;SDS011;11002;48.256;10.084;2023-12-04T06:20:09;12.95;;;6.72;;
21681;SDS011;11002;48.256;10.084;2023-12-04T06:23:04;12.70;;;6.25;;
21681;SDS011;11002;48.256;10.084;2023-12-04T06:25:47;12.68;;;6.53;;
21681;SDS011;11002;48.256;10.084;2023-12-04T06:28:41;15.55;;;6.47;;
21681;SDS011;11002;48.256;10.084;2023-12-04T06:31:32;11.73;;;6.40;;
21681;SDS011;11002;48.256;10.084;2023-12-04T06:34:04;20.67;;;7.63;;
21681;SDS011;11002;48.256;10.084;2023-12-04T06:36:35;17.40;;;6.30;;
21681;SDS011;11002;48.256;10.084;2023-12-04T06:42:38;11.77;;;5.80;;
21681;SDS011;11002;48.256;10.084;2023-12-04T06:45:31;10.52;;;6.20;;
21681;SDS011;11002;48.256;10.084;2023-12-04T06:48:09;10.27;;;5.82;;
21681;SDS011;11002;48.256;10.084;2023-12-04T06:51:24;11.02;;;6.53;;
21681;SDS011;11002;48.256;10.084;2023-12-04T06:54:05;14.23;;;6.28;;
21681;SDS011;11002;48.256;10.084;2023-12-04T06:56:38;18.13;;;7.10;;
21681;SDS011;11002;48.256;10.084;2023-12-04T06:59:22;13.23;;;6.10;;
21681;SDS011;11002;48.256;10.084;2023-12-04T07:02:17;16.40;;;6.82;;
21681;SDS011;11002;48.256;10.084;2023-12-04T07:04:47;12.55;;;6.00;;
21681;SDS011;11002;48.256;10.084;2023-12-04T07:07:20;11.88;;;6.15;;
21681;SDS011;11002;48.256;10.084;2023-12-04T07:09:56;18.60;;;7.93;;
21681;SDS011;11002;48.256;10.084;2023-12-04T07:12:49;10.70;;;6.57;;
21681;SDS011;11002;48.256;10.084;2023-12-04T07:15:38;15.52;;;7.40;;
21681;SDS011;11002;48.256;10.084;2023-12-04T07:18:20;10.38;;;6.40;;
21681;SDS011;11002;48.256;10.084;2023-12-04T07:21:02;14.23;;;7.07;;
21681;SDS011;11002;48.256;10.084;2023-12-04T07:24:01;16.13;;;9.02;;
21681;SDS011;11002;48.256;10.084;2023-12-04T07:26:46;15.35;;;7.05;;
21681;SDS011;11002;48.256;10.084;2023-12-04T07:29:40;9.40;;;6.45;;
21681;SDS011;11002;48.256;10.084;2023-12-04T07:32:39;16.95;;;9.55;;
21681;SDS011;11002;48.256;10.084;2023-12-04T07:35:12;15.50;;;8.45;;
21681;SDS011;11002;48.256;10.084;2023-12-04T07:37:47;14.75;;;6.13;;
21681;SDS011;11002;48.256;10.084;2023-12-04T07:40:33;14.15;;;7.95;;
21681;SDS011;11002;48.256;10.084;2023-12-04T07:43:19;12.52;;;7.18;;
21681;SDS011;11002;48.256;10.084;2023-12-04T07:46:21;13.52;;;6.75;;
21681;SDS011;11002;48.256;10.084;2023-12-04T07:49:26;11.07;;;6.40;;
21681;SDS011;11002;48.256;10.084;2023-12-04T07:54:45;6.68;;;4.63;;
21681;SDS011;11002;48.256;10.084;2023-12-04T07:57:56;9.00;;;4.35;;
21681;SDS011;11002;48.256;10.084;2023-12-04T08:01:03;9.10;;;6.47;;
21681;SDS011;11002;48.256;10.084;2023-12-04T08:04:12;16.02;;;6.80;;
21681;SDS011;11002;48.256;10.084;2023-12-04T08:07:12;12.27;;;6.65;;
21681;SDS011;11002;48.256;10.084;2023-12-04T08:10:00;12.25;;;5.97;;
21681;SDS011;11002;48.256;10.084;2023-12-04T08:12:40;16.85;;;6.28;;
21681;SDS011;11002;48.256;10.084;2023-12-04T08:15:33;12.00;;;5.78;;
21681;SDS011;11002;48.256;10.084;2023-12-04T08:18:23;10.90;;;7.00;;
21681;SDS011;11002;48.256;10.084;2023-12-04T08:20:59;15.18;;;7.07;;
21681;SDS011;11002;48.256;10.084;2023-12-04T08:23:49;13.15;;;6.63;;
21681;SDS011;11002;48.256;10.084;2023-12-04T08:26:31;16.85;;;7.35;;
21681;SDS011;11002;48.256;10.084;2023-12-04T08:29:07;17.30;;;7.43;;
21681;SDS011;11002;48.256;10.084;2023-12-04T08:32:08;12.18;;;7.00;;
21681;SDS011;11002;48.256;10.084;2023-12-04T08:35:00;17.92;;;7.53;;
21681;SDS011;11002;48.256;10.084;2023-12-04T08:38:05;18.13;;;7.18;;
21681;SDS011;11002;48.256;10.084;2023-12-04T08:40:42;18.70;;;6.68;;
21681;SDS011;11002;48.256;10.084;2023-12-04T08:43:28;18.60;;;7.05;;
21681;SDS011;11002;48.256;10.084;2023-12-04T08:46:34;11.88;;;7.22;;
21681;SDS011;11002;48.256;10.084;2023-12-04T08:50:19;15.45;;;7.43;;
21681;SDS011;11002;48.256;10.084;2023-12-04T08:53:04;14.27;;;8.30;;
21681;SDS011;11002;48.256;10.084;2023-12-04T08:56:22;11.85;;;7.20;;
21681;SDS011;11002;48.256;10.084;2023-12-04T08:59:15;16.13;;;8.05;;
21681;SDS011;11002;48.256;10.084;2023-12-04T09:02:18;17.50;;;8.88;;
21681;SDS011;11002;48.256;10.084;2023-12-04T09:05:01;14.70;;;7.55;;
21681;SDS011;11002;48.256;10.084;2023-12-04T09:07:41;14.15;;;7.25;;
21681;SDS011;11002;48.256;10.084;2023-12-04T09:13:46;16.95;;;7.68;;
21681;SDS011;11002;48.256;10.084;2023-12-04T09:16:32;23.30;;;7.88;;
21681;SDS011;11002;48.256;10.084;2023-12-04T09:23:38;15.93;;;7.90;;
21681;SDS011;11002;48.256;10.084;2023-12-04T09:26:36;15.35;;;8.00;;
21681;SDS011;11002;48.256;10.084;2023-12-04T09:29:25;18.37;;;7.73;;
21681;SDS011;11002;48.256;10.084;2023-12-04T09:32:25;12.95;;;7.97;;
21681;SDS011;11002;48.256;10.084;2023-12-04T09:35:26;17.20;;;8.10;;
21681;SDS011;11002;48.256;10.084;2023-12-04T09:38:31;11.13;;;7.38;;
21681;SDS011;11002;48.256;10.084;2023-12-04T09:41:26;16.92;;;8.60;;
21681;SDS011;11002;48.256;10.084;2023-12-04T09:44:35;17.45;;;8.25;;
21681;SDS011;11002;48.256;10.084;2023-12-04T09:47:32;15.52;;;7.90;;
21681;SDS011;11002;48.256;10.084;2023-12-04T09:52:37;17.90;;;8.75;;
21681;SDS011;11002;48.256;10.084;2023-12-04T09:54:59;18.33;;;8.23;;
21681;SDS011;11002;48.256;10.084;2023-12-04T09:58:15;25.92;;;7.78;;
21681;SDS011;11002;48.256;10.084;2023-12-04T10:01:15;19.38;;;9.63;;
21681;SDS011;11002;48.256;10.084;2023-12-04T10:04:29;18.08;;;9.27;;
21681;SDS011;11002;48.256;10.084;2023-12-04T10:08:43;14.30;;;8.13;;
21681;SDS011;11002;48.256;10.084;2023-12-04T10:11:43;18.70;;;8.40;;
21681;SDS011;11002;48.256;10.084;2023-12-04T10:15:03;15.98;;;8.52;;
21681;SDS011;11002;48.256;10.084;2023-12-04T10:18:19;14.57;;;8.18;;
21681;SDS011;11002;48.256;10.084;2023-12-04T10:21:38;14.15;;;7.70;;
21681;SDS011;11002;48.256;10.084;2023-12-04T10:25:14;19.13;;;7.97;;
21681;SDS011;11002;48.256;10.084;2023-12-04T10:27:45;16.52;;;8.23;;
21681;SDS011;11002;48.256;10.084;2023-12-04T10:30:23;15.38;;;7.95;;
21681;SDS011;11002;48.256;10.084;2023-12-04T10:32:55;18.17;;;9.63;;
21681;SDS011;11002;48.256;10.084;2023-12-04T10:35:26;16.83;;;8.90;;
21681;SDS011;11002;48.256;10.084;2023-12-04T10:37:55;19.70;;;9.77;;
21681;SDS011;11002;48.256;10.084;2023-12-04T10:40:23;19.83;;;8.18;;
21681;SDS011;11002;48.256;10.084;2023-12-04T10:42:53;18.77;;;8.90;;
21681;SDS011;11002;48.256;10.084;2023-12-04T10:45:37;19.10;;;9.52;;
21681;SDS011;11002;48.256;10.084;2023-12-04T10:48:05;16.88;;;9.63;;
21681;SDS011;11002;48.256;10.084;2023-12-04T10:50:33;18.55;;;9.27;;
21681;SDS011;11002;48.256;10.084;2023-12-04T10:53:01;15.73;;;7.88;;
21681;SDS011;11002;48.256;10.084;2023-12-04T10:55:29;19.73;;;9.50;;
21681;SDS011;11002;48.256;10.084;2023-12-04T10:57:58;15.55;;;9.13;;
21681;SDS011;11002;48.256;10.084;2023-12-04T11:00:27;22.15;;;9.55;;
21681;SDS011;11002;48.256;10.084;2023-12-04T11:02:55;21.15;;;10.32;;
21681;SDS011;11002;48.256;10.084;2023-12-04T11:05:26;16.40;;;9.23;;
21681;SDS011;11002;48.256;10.084;2023-12-04T11:07:54;21.38;;;9.48;;
21681;SDS011;11002;48.256;10.084;2023-12-04T11:10:24;21.98;;;9.48;;
21681;SDS011;11002;48.256;10.084;2023-12-04T11:12:56;19.08;;;7.95;;
21681;SDS011;11002;48.256;10.084;2023-12-04T11:15:29;19.58;;;10.93;;
21681;SDS011;11002;48.256;10.084;2023-12-04T11:17:58;17.85;;;9.60;;
21681;SDS011;11002;48.256;10.084;2023-12-04T11:20:27;19.55;;;9.98;;
21681;SDS011;11002;48.256;10.084;2023-12-04T11:22:57;23.75;;;10.30;;
21681;SDS011;11002;48.256;10.084;2023-12-04T11:25:25;20.15;;;10.27;;
21681;SDS011;11002;48.256;10.084;2023-12-04T11:27:54;20.60;;;9.60;;
21681;SDS011;11002;48.256;10.084;2023-12-04T11:30:23;18.80;;;10.73;;
21681;SDS011;11002;48.256;10.084;2023-12-04T11:32:51;22.67;;;9.90;;
21681;SDS011;11002;48.256;10.084;2023-12-04T11:35:23;19.00;;;9.32;;
21681;SDS011;11002;48.256;10.084;2023-12-04T11:37:52;17.52;;;8.93;;
21681;SDS011;11002;48.256;10.084;2023-12-04T11:40:20;13.93;;;8.20;;
21681;SDS011;11002;48.256;10.084;2023-12-04T11:42:47;17.67;;;9.20;;
21681;SDS011;11002;48.256;10.084;2023-12-04T11:45:18;22.33;;;10.18;;
21681;SDS011;11002;48.256;10.084;2023-12-04T11:47:50;15.55;;;8.50;;
21681;SDS011;11002;48.256;10.084;2023-12-04T11:50:20;15.60;;;9.00;;
21681;SDS011;11002;48.256;10.084;2023-12-04T11:52:48;16.77;;;9.27;;
21681;SDS011;11002;48.256;10.084;2023-12-04T11:55:16;23.83;;;9.55;;
21681;SDS011;11002;48.256;10.084;2023-12-04T11:57:43;22.80;;;10.00;;
21681;SDS011;11002;48.256;10.084;2023-12-04T12:00:13;15.32;;;8.70;;
21681;SDS011;11002;48.256;10.084;2023-12-04T12:02:47;19.60;;;8.63;;
21681;SDS011;11002;48.256;10.084;2023-12-04T12:05:29;16.65;;;8.55;;
21681;SDS011;11002;48.256;10.084;2023-12-04T12:07:59;13.70;;;8.02;;
21681;SDS011;11002;48.256;10.084;2023-12-04T12:10:28;19.52;;;8.95;;
21681;SDS011;11002;48.256;10.084;2023-12-04T12:12:56;16.85;;;9.25;;
21681;SDS011;11002;48.256;10.084;2023-12-04T12:15:23;18.15;;;9.13;;
21681;SDS011;11002;48.256;10.084;2023-12-04T12:17:51;17.25;;;9.13;;
21681;SDS011;11002;48.256;10.084;2023-12-04T12:20:18;15.32;;;8.93;;
21681;SDS011;11002;48.256;10.084;2023-12-04T12:22:48;17.20;;;8.73;;
21681;SDS011;11002;48.256;10.084;2023-12-04T12:25:16;20.42;;;9.77;;
21681;SDS011;11002;48.256;10.084;2023-12-04T12:27:44;21.42;;;10.73;;
21681;SDS011;11002;48.256;10.084;2023-12-04T12:30:12;21.17;;;8.88;;
21681;SDS011;11002;48.256;10.084;2023-12-04T12:32:40;17.73;;;8.90;;
21681;SDS011;11002;48.256;10.084;2023-12-04T12:35:07;18.63;;;8.90;;
21681;SDS011;11002;48.256;10.084;2023-12-04T12:37:34;18.90;;;9.88;;
21681;SDS011;11002;48.256;10.084;2023-12-04T12:40:05;18.15;;;9.25;;
21681;SDS011;11002;48.256;10.084;2023-12-04T12:42:35;17.88;;;9.23;;
21681;SDS011;11002;48.256;10.084;2023-12-04T12:45:05;18.85;;;9.18;;
21681;SDS011;11002;48.256;10.084;2023-12-04T12:47:35;18.20;;;9.32;;
21681;SDS011;11002;48.256;10.084;2023-12-04T12:50:03;19.05;;;10.05;;
21681;SDS011;11002;48.256;10.084;2023-12-04T12:52:36;21.23;;;9.85;;
21681;SDS011;11002;48.256;10.084;2023-12-04T12:55:05;17.25;;;9.00;;
21681;SDS011;11002;48.256;10.084;2023-12-04T12:57:33;11.60;;;7.38;;
21681;SDS011;11002;48.256;10.084;2023-12-04T13:02:51;17.05;;;8.07;;
21681;SDS011;11002;48.256;10.084;2023-12-04T13:05:19;15.52;;;7.93;;
21681;SDS011;11002;48.256;10.084;2023-12-04T13:07:47;17.40;;;9.38;;
21681;SDS011;11002;48.256;10.084;2023-12-04T13:10:15;15.00;;;8.05;;
21681;SDS011;11002;48.256;10.084;2023-12-04T13:12:43;19.60;;;8.82;;
21681;SDS011;11002;48.256;10.084;2023-12-04T13:15:10;19.85;;;8.95;;
21681;SDS011;11002;48.256;10.084;2023-12-04T13:17:37;17.05;;;8.35;;
21681;SDS011;11002;48.256;10.084;2023-12-04T13:20:05;16.45;;;8.38;;
21681;SDS011;11002;48.256;10.084;2023-12-04T13:22:37;17.98;;;9.02;;
21681;SDS011;11002;48.256;10.084;2023-12-04T13:25:04;14.57;;;8.32;;
21681;SDS011;11002;48.256;10.084;2023-12-04T13:27:36;14.77;;;7.78;;
21681;SDS011;11002;48.256;10.084;2023-12-04T13:30:05;14.80;;;7.90;;
21681;SDS011;11002;48.256;10.084;2023-12-04T13:32:33;16.10;;;7.85;;
21681;SDS011;11002;48.256;10.084;2023-12-04T13:35:14;15.98;;;8.65;;
21681;SDS011;11002;48.256;10.084;2023-12-04T13:37:44;21.63;;;9.15;;
21681;SDS011;11002;48.256;10.084;2023-12-04T13:40:20;16.08;;;8.57;;
21681;SDS011;11002;48.256;10.084;2023-12-04T13:42:57;15.45;;;8.05;;
21681;SDS011;11002;48.256;10.084;2023-12-04T13:45:45;23.37;;;9.20;;
21681;SDS011;11002;48.256;10.084;2023-12-04T13:48:13;16.55;;;8.48;;
21681;SDS011;11002;48.256;10.084;2023-12-04T13:50:43;13.70;;;7.40;;
21681;SDS011;11002;48.256;10.084;2023-12-04T13:53:11;16.60;;;8.02;;
21681;SDS011;11002;48.256;10.084;2023-12-04T13:55:41;15.32;;;8.02;;
21681;SDS011;11002;48.256;10.084;2023-12-04T13:58:36;13.27;;;6.72;;
21681;SDS011;11002;48.256;10.084;2023-12-04T14:01:06;16.00;;;7.80;;
21681;SDS011;11002;48.256;10.084;2023-12-04T14:03:39;15.55;;;8.90;;
21681;SDS011;11002;48.256;10.084;2023-12-04T14:06:08;15.15;;;8.60;;
21681;SDS011;11002;48.256;10.084;2023-12-04T14:08:36;16.45;;;8.20;;
21681;SDS011;11002;48.256;10.084;2023-12-04T14:11:05;17.35;;;8.18;;
21681;SDS011;11002;48.256;10.084;2023-12-04T14:13:33;13.95;;;8.38;;
21681;SDS011;11002;48.256;10.084;2023-12-04T14:16:03;17.80;;;8.77;;
21681;SDS011;11002;48.256;10.084;2023-12-04T14:18:31;18.67;;;8.88;;
21681;SDS011;11002;48.256;10.084;2023-12-04T14:21:00;14.95;;;7.60;;
21681;SDS011;11002;48.256;10.084;2023-12-04T14:23:27;19.10;;;8.82;;
21681;SDS011;11002;48.256;10.084;2023-12-04T14:25:55;14.32;;;8.07;;
21681;SDS011;11002;48.256;10.084;2023-12-04T14:28:23;16.40;;;9.25;;
21681;SDS011;11002;48.256;10.084;2023-12-04T14:30:53;17.50;;;8.93;;
21681;SDS011;11002;48.256;10.084;2023-12-04T14:33:21;15.48;;;9.40;;
21681;SDS011;11002;48.256;10.084;2023-12-04T14:35:53;18.02;;;8.70;;
21681;SDS011;11002;48.256;10.084;2023-12-04T14:38:21;20.52;;;8.73;;
21681;SDS011;11002;48.256;10.084;2023-12-04T14:40:52;15.80;;;7.65;;
21681;SDS011;11002;48.256;10.084;2023-12-04T14:43:20;15.90;;;7.50;;
21681;SDS011;11002;48.256;10.084;2023-12-04T14:45:55;15.30;;;8.02;;
21681;SDS011;11002;48.256;10.084;2023-12-04T14:48:25;17.45;;;8.73;;
21681;SDS011;11002;48.256;10.084;2023-12-04T14:50:55;15.85;;;7.78;;
21681;SDS011;11002;48.256;10.084;2023-12-04T14:53:38;16.02;;;9.38;;
21681;SDS011;11002;48.256;10.084;2023-12-04T14:56:31;14.75;;;8.25;;
21681;SDS011;11002;48.256;10.084;2023-12-04T14:59:31;14.75;;;8.40;;
21681;SDS011;11002;48.256;10.084;2023-12-04T15:02:47;15.82;;;8.40;;
21681;SDS011;11002;48.256;10.084;2023-12-04T15:05:46;16.98;;;8.57;;
21681;SDS011;11002;48.256;10.084;2023-12-04T15:08:32;15.60;;;8.70;;
21681;SDS011;11002;48.256;10.084;2023-12-04T15:11:31;22.63;;;9.82;;
21681;SDS011;11002;48.256;10.084;2023-12-04T15:14:25;18.13;;;8.13;;
21681;SDS011;11002;48.256;10.084;2023-12-04T15:17:09;16.17;;;8.65;;
21681;SDS011;11002;48.256;10.084;2023-12-04T15:19:49;14.88;;;7.75;;
21681;SDS011;11002;48.256;10.084;2023-12-04T15:23:05;14.45;;;7.72;;
21681;SDS011;11002;48.256;10.084;2023-12-04T15:26:05;18.85;;;8.85;;
21681;SDS011;11002;48.256;10.084;2023-12-04T15:28:39;15.52;;;8.95;;
21681;SDS011;11002;48.256;10.084;2023-12-04T15:31:46;13.82;;;7.22;;
21681;SDS011;11002;48.256;10.084;2023-12-04T15:34:18;18.63;;;9.20;;
21681;SDS011;11002;48.256;10.084;2023-12-04T15:36:52;22.48;;;9.63;;
21681;SDS011;11002;48.256;10.084;2023-12-04T15:39:19;22.58;;;9.25;;
21681;SDS011;11002;48.256;10.084;2023-12-04T15:41:54;20.63;;;10.00;;
21681;SDS011;11002;48.256;10.084;2023-12-04T15:44:26;16.20;;;10.40;;
21681;SDS011;11002;48.256;10.084;2023-12-04T15:47:00;18.40;;;9.23;;